createdAt,value
2022-12-27T00:01:56.305Z,2.70
2022-12-27T00:04:22.861Z,3.60
2022-12-27T00:06:52.864Z,2.90
2022-12-27T00:09:19.724Z,3.30
2022-12-27T00:11:46.402Z,1.20
2022-12-27T00:16:40.000Z,1.50
2022-12-27T00:19:06.868Z,1.60
2022-12-27T00:21:33.483Z,2.30
2022-12-27T00:24:00.606Z,2.60
2022-12-27T00:26:29.733Z,1.40
2022-12-27T00:28:56.974Z,3.10
2022-12-27T00:31:25.494Z,2.40
2022-12-27T00:33:54.263Z,2.40
2022-12-27T00:36:23.715Z,1.70
2022-12-27T00:38:51.939Z,2.60
2022-12-27T00:41:19.399Z,2.90
2022-12-27T00:43:46.346Z,2.10
2022-12-27T00:46:14.091Z,2.70
2022-12-27T00:48:41.493Z,1.50
2022-12-27T00:51:20.026Z,2.20
2022-12-27T00:53:47.540Z,2.90
2022-12-27T00:56:17.336Z,3.10
2022-12-27T00:58:44.529Z,2.70
2022-12-27T01:01:14.672Z,5.00
2022-12-27T01:03:41.966Z,2.30
2022-12-27T01:06:11.478Z,2.80
2022-12-27T01:08:38.805Z,2.70
2022-12-27T01:11:06.185Z,3.30
2022-12-27T01:13:33.165Z,2.10
2022-12-27T01:16:00.324Z,3.50
2022-12-27T01:18:27.098Z,3.20
2022-12-27T01:20:53.777Z,2.20
2022-12-27T01:23:20.501Z,2.20
2022-12-27T01:25:47.071Z,2.40
2022-12-27T01:28:13.705Z,2.20
2022-12-27T01:33:06.872Z,2.40
2022-12-27T01:35:34.543Z,2.60
2022-12-27T01:38:01.441Z,3.70
2022-12-27T01:40:28.589Z,2.10
2022-12-27T01:42:56.630Z,2.20
2022-12-27T01:45:27.461Z,1.70
2022-12-27T01:48:00.551Z,2.70
2022-12-27T01:50:28.775Z,3.90
2022-12-27T01:52:56.152Z,2.50
2022-12-27T01:55:34.589Z,2.60
2022-12-27T01:58:07.794Z,3.00
2022-12-27T02:00:34.526Z,2.40
2022-12-27T02:03:03.267Z,2.30
2022-12-27T02:05:30.059Z,3.40
2022-12-27T02:08:13.029Z,2.10
2022-12-27T02:10:40.117Z,1.50
2022-12-27T02:13:07.127Z,1.50
2022-12-27T02:15:34.205Z,1.90
2022-12-27T02:18:01.198Z,2.40
2022-12-27T02:20:34.550Z,1.40
2022-12-27T02:23:22.913Z,2.10
2022-12-27T02:26:24.206Z,2.10
2022-12-27T02:28:56.712Z,1.70
2022-12-27T02:33:51.602Z,4.00
2022-12-27T02:36:28.106Z,2.20
2022-12-27T02:38:57.829Z,4.70
2022-12-27T02:41:44.017Z,3.00
2022-12-27T02:44:29.298Z,2.10
2022-12-27T02:47:14.928Z,3.90
2022-12-27T02:50:03.989Z,3.60
2022-12-27T02:52:57.168Z,4.00
2022-12-27T02:55:42.851Z,2.50
2022-12-27T02:58:32.604Z,2.70
2022-12-27T03:01:27.784Z,3.80
2022-12-27T03:04:17.539Z,3.10
2022-12-27T03:07:06.839Z,5.70
2022-12-27T03:10:01.865Z,3.00
2022-12-27T03:12:53.488Z,1.60
2022-12-27T03:15:54.517Z,2.10
2022-12-27T03:18:27.276Z,2.90
2022-12-27T03:21:19.869Z,4.40
2022-12-27T03:24:06.897Z,2.70
2022-12-27T03:26:35.843Z,2.60
2022-12-27T03:29:22.070Z,3.80
2022-12-27T03:32:10.809Z,2.40
2022-12-27T03:34:40.123Z,2.10
2022-12-27T03:37:35.816Z,2.50
2022-12-27T03:40:27.170Z,3.80
2022-12-27T03:43:10.994Z,3.40
2022-12-27T03:45:59.600Z,2.30
2022-12-27T03:48:27.754Z,4.80
2022-12-27T03:51:04.310Z,4.10
2022-12-27T03:53:37.030Z,2.90
2022-12-27T03:56:05.299Z,1.80
2022-12-27T03:58:32.297Z,3.20
2022-12-27T04:00:59.215Z,3.20
2022-12-27T04:03:26.503Z,3.50
2022-12-27T04:05:53.090Z,3.60
2022-12-27T04:08:38.509Z,3.70
2022-12-27T04:11:23.760Z,2.20
2022-12-27T04:14:09.804Z,2.60
2022-12-27T04:16:55.258Z,3.40
2022-12-27T04:19:41.180Z,3.80
2022-12-27T04:22:26.131Z,3.80
2022-12-27T04:25:11.820Z,3.10
2022-12-27T04:27:57.071Z,3.40
2022-12-27T04:30:42.687Z,5.90
2022-12-27T04:33:28.191Z,2.70
2022-12-27T04:35:55.624Z,3.90
2022-12-27T04:38:22.245Z,4.00
2022-12-27T04:41:07.510Z,4.80
2022-12-27T04:43:52.938Z,4.10
2022-12-27T04:46:43.576Z,4.60
2022-12-27T04:49:43.047Z,4.60
2022-12-27T04:52:39.376Z,3.20
2022-12-27T04:55:13.102Z,3.00
2022-12-27T04:57:42.378Z,2.40
2022-12-27T05:00:35.881Z,3.50
2022-12-27T05:03:05.892Z,2.20
2022-12-27T05:05:33.803Z,3.70
2022-12-27T05:08:19.209Z,5.30
2022-12-27T05:11:04.497Z,2.60
2022-12-27T05:13:50.124Z,7.30
2022-12-27T05:16:16.763Z,4.90
2022-12-27T05:18:43.254Z,4.70
2022-12-27T05:21:09.976Z,2.90
2022-12-27T05:24:00.249Z,6.10
2022-12-27T05:26:30.904Z,2.70
2022-12-27T05:28:58.429Z,1.60
2022-12-27T05:31:26.394Z,3.50
2022-12-27T05:33:53.286Z,3.00
2022-12-27T05:36:20.726Z,6.00
2022-12-27T05:38:47.456Z,3.20
2022-12-27T05:41:14.202Z,5.20
2022-12-27T05:43:40.935Z,5.60
2022-12-27T05:46:10.657Z,4.10
2022-12-27T05:48:38.013Z,8.80
2022-12-27T05:51:17.509Z,6.20
2022-12-27T05:53:44.996Z,6.70
2022-12-27T05:56:14.573Z,2.50
2022-12-27T05:58:41.220Z,5.40
2022-12-27T06:01:10.779Z,4.20
2022-12-27T06:03:37.876Z,4.20
2022-12-27T06:08:33.793Z,5.00
2022-12-27T06:11:09.130Z,5.70
2022-12-27T06:13:37.091Z,8.60
2022-12-27T06:16:05.513Z,5.70
2022-12-27T06:18:35.027Z,2.90
2022-12-27T06:21:06.758Z,2.70
2022-12-27T06:23:34.813Z,3.00
2022-12-27T06:26:13.981Z,5.00
2022-12-27T06:28:41.111Z,5.20
2022-12-27T06:31:07.759Z,6.60
2022-12-27T06:33:35.172Z,7.90
2022-12-27T06:36:06.676Z,4.80
2022-12-27T06:38:33.434Z,5.00
2022-12-27T06:41:01.666Z,6.90
2022-12-27T06:43:28.560Z,4.90
2022-12-27T06:45:56.843Z,3.40
2022-12-27T06:48:24.050Z,10.40
2022-12-27T06:50:51.070Z,8.00
2022-12-27T06:53:17.723Z,4.40
2022-12-27T06:55:44.441Z,5.30
2022-12-27T06:58:12.262Z,3.50
2022-12-27T07:00:39.766Z,6.70
2022-12-27T07:03:06.892Z,3.40
2022-12-27T07:05:34.811Z,4.50
2022-12-27T07:08:01.531Z,8.10
2022-12-27T07:10:28.124Z,4.70
2022-12-27T07:12:56.251Z,2.70
2022-12-27T07:15:23.003Z,4.40
2022-12-27T07:17:49.522Z,4.60
2022-12-27T07:20:16.300Z,5.80
2022-12-27T07:22:42.907Z,5.50
2022-12-27T07:25:09.573Z,3.30
2022-12-27T07:27:36.775Z,5.80
2022-12-27T07:32:30.736Z,4.20
2022-12-27T07:34:57.568Z,1.90
2022-12-27T07:37:24.070Z,6.60
2022-12-27T07:39:50.905Z,3.90
2022-12-27T07:42:17.557Z,2.30
2022-12-27T07:44:44.277Z,7.60
2022-12-27T07:47:10.788Z,4.00
2022-12-27T07:49:37.330Z,3.60
2022-12-27T07:52:03.900Z,3.50
2022-12-27T07:54:30.562Z,4.60
2022-12-27T07:56:57.078Z,4.10
2022-12-27T07:59:23.587Z,5.70
2022-12-27T08:02:05.127Z,4.20
2022-12-27T08:04:35.162Z,4.30
2022-12-27T08:07:12.472Z,3.60
2022-12-27T08:09:40.600Z,3.60
2022-12-27T08:12:07.701Z,5.90
2022-12-27T08:14:34.248Z,3.60
2022-12-27T08:17:07.024Z,3.90
2022-12-27T08:19:33.923Z,4.40
2022-12-27T08:24:27.251Z,2.00
2022-12-27T08:26:53.754Z,3.20
2022-12-27T08:29:20.219Z,3.90
2022-12-27T08:34:13.935Z,4.60
2022-12-27T08:36:56.594Z,3.00
2022-12-27T08:39:23.733Z,2.60
2022-12-27T08:41:52.299Z,3.80
2022-12-27T08:44:18.836Z,4.00
2022-12-27T08:46:45.559Z,3.30
2022-12-27T08:49:12.338Z,4.60
2022-12-27T08:51:41.400Z,5.20
2022-12-27T08:54:08.997Z,2.70
2022-12-27T08:59:02.131Z,2.90
2022-12-27T09:01:28.854Z,5.10
2022-12-27T09:03:55.573Z,2.00
2022-12-27T09:06:23.511Z,3.00
2022-12-27T09:08:51.140Z,4.00
2022-12-27T09:11:20.196Z,2.20
2022-12-27T09:13:47.016Z,4.50
2022-12-27T09:18:42.287Z,2.40
2022-12-27T09:21:12.864Z,4.20
2022-12-27T09:23:40.609Z,3.00
2022-12-27T09:26:12.896Z,3.10
2022-12-27T09:28:40.447Z,3.80
2022-12-27T09:31:11.027Z,3.40
2022-12-27T09:33:37.855Z,5.70
2022-12-27T09:36:09.771Z,2.40
2022-12-27T09:38:37.123Z,2.70
2022-12-27T09:41:06.594Z,3.60
2022-12-27T09:43:40.306Z,4.50
2022-12-27T09:46:17.246Z,3.90
2022-12-27T09:48:44.397Z,3.10
2022-12-27T09:51:18.065Z,2.10
2022-12-27T09:54:02.235Z,3.40
2022-12-27T09:56:54.381Z,3.10
2022-12-27T09:59:32.512Z,2.80
2022-12-27T10:01:59.372Z,3.00
2022-12-27T10:10:16.465Z,3.70
2022-12-27T10:13:07.626Z,4.30
2022-12-27T10:15:51.678Z,2.50
2022-12-27T10:18:49.793Z,4.30
2022-12-27T10:21:20.144Z,2.80
2022-12-27T10:23:53.998Z,5.10
2022-12-27T10:26:21.059Z,2.70
2022-12-27T10:29:23.368Z,3.30
2022-12-27T10:31:50.019Z,5.50
2022-12-27T10:34:24.688Z,3.70
2022-12-27T10:36:53.074Z,2.70
2022-12-27T10:39:28.182Z,3.10
2022-12-27T10:42:16.575Z,6.50
2022-12-27T10:44:43.325Z,3.00
2022-12-27T10:47:10.494Z,3.30
2022-12-27T10:49:37.896Z,4.50
2022-12-27T10:52:33.526Z,3.50
2022-12-27T10:55:00.380Z,4.50
2022-12-27T10:57:32.919Z,2.60
2022-12-27T11:00:17.929Z,3.00
2022-12-27T11:02:56.261Z,5.20
2022-12-27T11:05:29.519Z,3.30
2022-12-27T11:10:27.817Z,5.70
2022-12-27T11:12:55.601Z,3.20
2022-12-27T11:15:22.796Z,3.60
2022-12-27T11:17:58.074Z,1.60
2022-12-27T11:20:30.436Z,2.90
2022-12-27T11:22:56.920Z,2.70
2022-12-27T11:25:25.888Z,3.20
2022-12-27T11:27:58.898Z,1.80
2022-12-27T11:30:30.674Z,3.60
2022-12-27T11:33:24.333Z,3.20
2022-12-27T11:35:53.730Z,2.80
2022-12-27T11:38:33.483Z,3.40
2022-12-27T11:41:11.191Z,2.60
2022-12-27T11:43:54.319Z,5.50
2022-12-27T11:46:33.369Z,3.60
2022-12-27T11:49:03.645Z,3.10
2022-12-27T11:52:05.865Z,3.40
2022-12-27T11:54:51.219Z,2.40
2022-12-27T12:00:33.003Z,3.50
2022-12-27T12:03:19.804Z,2.50
2022-12-27T12:12:50.462Z,1.90
2022-12-27T12:15:55.026Z,4.50
2022-12-27T12:18:36.744Z,4.30
2022-12-27T12:21:27.906Z,4.50
2022-12-27T12:24:16.057Z,4.00
2022-12-27T12:27:07.123Z,3.00
2022-12-27T12:29:51.800Z,2.60
2022-12-27T12:32:29.192Z,1.50
2022-12-27T12:35:14.350Z,2.70
2022-12-27T12:38:04.122Z,4.10
2022-12-27T12:40:32.839Z,3.80
2022-12-27T12:43:16.169Z,3.60
2022-12-27T12:45:56.309Z,3.00
2022-12-27T12:48:44.676Z,1.90
2022-12-27T12:51:19.933Z,3.40
2022-12-27T12:54:05.344Z,2.70
2022-12-27T12:56:45.082Z,2.10
2022-12-27T12:59:48.885Z,4.60
2022-12-27T13:03:07.382Z,2.50
2022-12-27T13:05:45.332Z,2.30
2022-12-27T13:08:35.552Z,3.30
2022-12-27T13:11:08.713Z,2.60
2022-12-27T13:14:13.798Z,4.00
2022-12-27T13:17:21.732Z,3.00
2022-12-27T13:20:00.444Z,2.70
2022-12-27T13:22:52.240Z,1.90
2022-12-27T13:25:31.161Z,2.70
2022-12-27T13:28:19.624Z,3.50
2022-12-27T13:31:03.095Z,3.30
2022-12-27T13:34:26.730Z,2.40
2022-12-27T13:37:09.004Z,3.50
2022-12-27T13:40:04.374Z,4.00
2022-12-27T13:42:49.548Z,4.70
2022-12-27T13:45:22.371Z,6.50
2022-12-27T13:48:02.523Z,3.50
2022-12-27T13:51:11.272Z,2.70
2022-12-27T13:54:06.326Z,2.20
2022-12-27T13:56:54.455Z,4.00
2022-12-27T13:59:59.465Z,3.10
2022-12-27T14:02:43.644Z,3.40
2022-12-27T14:05:32.093Z,3.10
2022-12-27T14:08:21.726Z,4.10
2022-12-27T14:10:52.784Z,5.00
2022-12-27T14:13:31.831Z,2.50
2022-12-27T14:16:41.750Z,3.20
2022-12-27T14:19:27.428Z,3.70
2022-12-27T14:22:22.451Z,4.80
2022-12-27T14:25:13.687Z,4.40
2022-12-27T14:27:59.195Z,4.00
2022-12-27T14:31:13.670Z,2.40
2022-12-27T14:33:55.205Z,4.30
2022-12-27T14:36:49.327Z,2.70
2022-12-27T14:39:53.340Z,4.40
2022-12-27T14:42:48.155Z,4.00
2022-12-27T14:45:55.529Z,7.00
2022-12-27T14:48:36.261Z,3.90
2022-12-27T14:52:00.131Z,5.70
2022-12-27T14:54:59.201Z,4.30
2022-12-27T14:57:50.305Z,3.10
2022-12-27T15:00:20.123Z,4.30
2022-12-27T15:03:01.906Z,3.60
2022-12-27T15:05:54.396Z,3.80
2022-12-27T15:08:26.726Z,4.60
2022-12-27T15:11:27.481Z,2.20
2022-12-27T15:14:19.052Z,3.50
2022-12-27T15:16:58.885Z,4.50
2022-12-27T15:19:44.148Z,3.20
2022-12-27T15:22:28.405Z,5.30
2022-12-27T15:25:06.185Z,4.80
2022-12-27T15:27:41.341Z,2.90
2022-12-27T15:30:16.909Z,7.30
2022-12-27T15:33:15.268Z,4.30
2022-12-27T15:36:06.205Z,5.30
2022-12-27T15:38:41.121Z,3.60
2022-12-27T15:41:07.676Z,2.70
2022-12-27T15:43:54.131Z,3.50
2022-12-27T15:46:38.888Z,5.50
2022-12-27T15:49:21.678Z,3.70
2022-12-27T15:52:00.337Z,6.90
2022-12-27T15:54:53.327Z,3.70
2022-12-27T15:57:43.361Z,4.40
2022-12-27T16:00:13.766Z,2.10
2022-12-27T16:02:43.350Z,4.80
2022-12-27T16:05:10.333Z,3.60
2022-12-27T16:08:03.103Z,6.00
2022-12-27T16:10:34.875Z,3.80
2022-12-27T16:13:11.111Z,3.30
2022-12-27T16:15:39.098Z,3.20
2022-12-27T16:18:23.968Z,4.20
2022-12-27T16:20:56.456Z,3.90
2022-12-27T16:23:34.540Z,5.40
2022-12-27T16:26:05.278Z,4.90
2022-12-27T16:28:33.575Z,3.50
2022-12-27T16:31:07.175Z,5.10
2022-12-27T16:33:36.959Z,4.20
2022-12-27T16:36:14.856Z,6.70
2022-12-27T16:39:05.613Z,3.50
2022-12-27T16:41:38.496Z,4.50
2022-12-27T16:44:28.885Z,2.90
2022-12-27T16:47:18.269Z,6.50
2022-12-27T16:50:06.337Z,4.90
2022-12-27T16:52:56.549Z,4.90
2022-12-27T16:55:42.326Z,4.40
2022-12-27T16:58:22.425Z,5.10
2022-12-27T17:00:54.064Z,4.40
2022-12-27T17:03:21.397Z,4.90
2022-12-27T17:06:30.687Z,3.60
2022-12-27T17:08:38.956Z,4.00
2022-12-27T17:11:17.316Z,7.80
2022-12-27T17:13:52.504Z,5.50
2022-12-27T17:16:31.972Z,4.30
2022-12-27T17:19:01.461Z,3.90
2022-12-27T17:21:34.013Z,3.40
2022-12-27T17:24:08.753Z,4.10
2022-12-27T17:27:13.007Z,7.40
2022-12-27T17:29:56.819Z,6.90
2022-12-27T17:32:42.235Z,4.90
2022-12-27T17:35:15.389Z,5.70
2022-12-27T17:40:56.849Z,4.80
2022-12-27T17:44:02.899Z,4.30
2022-12-27T17:47:01.790Z,5.30
2022-12-27T17:49:30.611Z,4.80
2022-12-27T17:52:17.436Z,4.10
2022-12-27T17:55:03.036Z,4.40
2022-12-27T17:57:49.278Z,5.00
2022-12-27T18:00:23.248Z,4.60
2022-12-27T18:02:51.672Z,5.40
2022-12-27T18:05:21.057Z,3.90
2022-12-27T18:07:50.414Z,7.00
2022-12-27T18:10:23.571Z,7.00
2022-12-27T18:15:25.860Z,3.30
2022-12-27T18:17:54.077Z,4.10
2022-12-27T18:20:29.967Z,7.40
2022-12-27T18:23:01.488Z,9.20
2022-12-27T18:25:39.769Z,5.60
2022-12-27T18:28:18.192Z,6.00
2022-12-27T18:31:10.895Z,6.90
2022-12-27T18:33:53.507Z,7.30
2022-12-27T18:36:38.753Z,6.10
2022-12-27T18:39:51.920Z,5.30
2022-12-27T18:42:32.484Z,6.40
2022-12-27T18:45:08.029Z,6.50
2022-12-27T18:47:39.528Z,5.50
2022-12-27T18:50:16.495Z,7.50
2022-12-27T18:52:43.032Z,6.90
2022-12-27T18:55:27.068Z,7.30
2022-12-27T18:58:20.517Z,7.10
2022-12-27T19:01:05.512Z,8.60
2022-12-27T19:03:38.281Z,11.00
2022-12-27T19:06:12.357Z,6.90
2022-12-27T19:08:44.868Z,7.90
2022-12-27T19:11:34.570Z,7.80
2022-12-27T19:14:04.372Z,7.20
2022-12-27T19:16:33.783Z,7.20
2022-12-27T19:19:14.219Z,7.10
2022-12-27T19:21:41.070Z,8.70
2022-12-27T19:24:30.305Z,7.10
2022-12-27T19:27:02.530Z,7.70
2022-12-27T19:29:30.896Z,10.30
2022-12-27T19:32:03.768Z,8.40
2022-12-27T19:34:44.032Z,7.50
2022-12-27T19:37:10.516Z,8.70
2022-12-27T19:39:38.324Z,7.10
2022-12-27T19:42:11.514Z,7.60
2022-12-27T19:44:38.143Z,9.10
2022-12-27T19:47:05.099Z,9.20
2022-12-27T19:49:42.554Z,6.10
2022-12-27T19:52:22.650Z,7.30
2022-12-27T19:54:50.959Z,6.20
2022-12-27T19:57:17.894Z,6.90
2022-12-27T19:59:44.267Z,7.70
2022-12-27T20:02:11.245Z,6.40
2022-12-27T20:04:38.269Z,9.40
2022-12-27T20:07:04.943Z,7.10
2022-12-27T20:09:31.590Z,7.70
2022-12-27T20:11:58.200Z,11.00
2022-12-27T20:14:24.664Z,7.80
2022-12-27T20:16:51.329Z,7.20
2022-12-27T20:19:19.486Z,9.00
2022-12-27T20:21:46.369Z,6.90
2022-12-27T20:26:41.439Z,7.70
2022-12-27T20:29:08.474Z,9.20
2022-12-27T20:31:40.658Z,12.80
2022-12-27T20:34:11.871Z,7.50
2022-12-27T20:36:38.664Z,9.40
2022-12-27T20:39:06.488Z,11.40
2022-12-27T20:41:33.054Z,8.80
2022-12-27T20:43:59.786Z,9.40
2022-12-27T20:46:26.480Z,7.30
2022-12-27T20:51:47.490Z,8.60
2022-12-27T20:54:38.661Z,6.10
2022-12-27T20:57:47.428Z,9.10
2022-12-27T21:00:40.782Z,8.30
2022-12-27T21:03:07.901Z,7.00
2022-12-27T21:05:41.301Z,10.00
2022-12-27T21:08:25.906Z,9.50
2022-12-27T21:10:52.625Z,11.00
2022-12-27T21:13:19.193Z,7.40
2022-12-27T21:15:45.781Z,10.90
2022-12-27T21:18:12.333Z,7.70
2022-12-27T21:20:38.940Z,7.70
2022-12-27T21:23:05.422Z,9.10
2022-12-27T21:25:31.972Z,8.20
2022-12-27T21:27:58.924Z,9.50
2022-12-27T21:30:25.556Z,8.80
2022-12-27T21:32:52.217Z,10.40
2022-12-27T21:35:19.135Z,10.40
2022-12-27T21:37:46.008Z,10.40
2022-12-27T21:40:12.679Z,13.80
2022-12-27T21:42:39.220Z,8.50
2022-12-27T21:45:05.978Z,8.30
2022-12-27T21:47:32.752Z,6.80
2022-12-27T21:49:59.596Z,10.30
2022-12-27T21:52:28.246Z,10.20
2022-12-27T21:54:54.848Z,10.40
2022-12-27T21:59:48.340Z,7.40
2022-12-27T22:02:15.358Z,8.20
2022-12-27T22:04:43.046Z,10.00
2022-12-27T22:07:09.510Z,9.80
2022-12-27T22:09:36.449Z,8.90
2022-12-27T22:12:03.253Z,6.40
2022-12-27T22:14:36.652Z,8.60
2022-12-27T22:17:04.094Z,11.20
2022-12-27T22:19:30.564Z,7.20
2022-12-27T22:21:57.037Z,7.80
2022-12-27T22:24:23.779Z,11.50
2022-12-27T22:26:50.598Z,8.50
2022-12-27T22:29:17.201Z,7.50
2022-12-27T22:31:44.111Z,10.40
2022-12-27T22:34:10.672Z,9.10
2022-12-27T22:36:37.157Z,9.40
2022-12-27T22:39:04.148Z,8.50
2022-12-27T22:41:35.296Z,9.10
2022-12-27T22:44:07.542Z,8.60
2022-12-27T22:49:21.934Z,8.10
2022-12-27T22:51:50.885Z,7.40
2022-12-27T22:54:17.716Z,9.90
2022-12-27T22:59:15.988Z,6.00
2022-12-27T23:01:44.595Z,7.00
2022-12-27T23:04:13.972Z,6.30
2022-12-27T23:06:42.412Z,7.80
2022-12-27T23:09:10.177Z,5.50
2022-12-27T23:11:40.479Z,5.10
2022-12-27T23:14:15.491Z,5.10
2022-12-27T23:16:47.651Z,5.10
2022-12-27T23:19:18.499Z,6.60
2022-12-27T23:21:45.745Z,6.00
2022-12-27T23:24:12.837Z,9.30
2022-12-27T23:26:43.320Z,5.80
2022-12-27T23:29:14.071Z,5.20
2022-12-27T23:31:55.222Z,5.70
2022-12-27T23:34:28.410Z,5.60
2022-12-27T23:36:57.979Z,6.50
2022-12-27T23:39:28.901Z,4.10
2022-12-27T23:41:56.069Z,6.30
2022-12-27T23:44:33.968Z,4.80
2022-12-27T23:47:05.657Z,7.70
2022-12-27T23:49:33.556Z,6.60
2022-12-27T23:52:00.970Z,4.50
2022-12-27T23:54:28.120Z,5.20
2022-12-27T23:56:55.507Z,5.10
2022-12-27T23:59:22.950Z,6.00
